sensor_id;sensor_type;location;lat;lon;timestamp;P1;durP1;ratioP1;P2;durP2;ratioP2
17741;SDS011;8993;51.822;-2.268;2022-10-22T00:02:41;18.56;;;1.62;;
17741;SDS011;8993;51.822;-2.268;2022-10-22T00:07:45;16.74;;;1.57;;
17741;SDS011;8993;51.822;-2.268;2022-10-22T00:12:49;18.25;;;1.57;;
17741;SDS011;8993;51.822;-2.268;2022-10-22T00:17:53;17.47;;;1.48;;
17741;SDS011;8993;51.822;-2.268;2022-10-22T00:22:58;14.99;;;1.32;;
17741;SDS011;8993;51.822;-2.268;2022-10-22T00:28:02;15.81;;;1.40;;
17741;SDS011;8993;51.822;-2.268;2022-10-22T00:33:06;17.93;;;1.45;;
17741;SDS011;8993;51.822;-2.268;2022-10-22T00:38:11;16.50;;;1.61;;
17741;SDS011;8993;51.822;-2.268;2022-10-22T00:43:16;16.65;;;1.40;;
17741;SDS011;8993;51.822;-2.268;2022-10-22T00:48:21;16.08;;;1.62;;
17741;SDS011;8993;51.822;-2.268;2022-10-22T00:53:25;14.40;;;1.26;;
17741;SDS011;8993;51.822;-2.268;2022-10-22T00:58:29;18.05;;;1.46;;
17741;SDS011;8993;51.822;-2.268;2022-10-22T01:03:32;15.84;;;1.36;;
17741;SDS011;8993;51.822;-2.268;2022-10-22T01:08:38;16.18;;;1.39;;
17741;SDS011;8993;51.822;-2.268;2022-10-22T01:13:48;13.27;;;1.07;;
17741;SDS011;8993;51.822;-2.268;2022-10-22T01:18:47;13.02;;;1.11;;
17741;SDS011;8993;51.822;-2.268;2022-10-22T01:24:01;13.00;;;1.20;;
17741;SDS011;8993;51.822;-2.268;2022-10-22T01:28:57;14.99;;;1.22;;
17741;SDS011;8993;51.822;-2.268;2022-10-22T01:34:00;12.83;;;1.08;;
17741;SDS011;8993;51.822;-2.268;2022-10-22T01:39:04;13.12;;;1.18;;
17741;SDS011;8993;51.822;-2.268;2022-10-22T01:44:21;12.90;;;1.11;;
17741;SDS011;8993;51.822;-2.268;2022-10-22T01:49:13;16.93;;;1.34;;
17741;SDS011;8993;51.822;-2.268;2022-10-22T01:54:20;12.57;;;1.25;;
17741;SDS011;8993;51.822;-2.268;2022-10-22T01:59:23;14.87;;;1.35;;
17741;SDS011;8993;51.822;-2.268;2022-10-22T02:04:25;15.59;;;1.43;;
17741;SDS011;8993;51.822;-2.268;2022-10-22T02:09:29;15.25;;;1.22;;
17741;SDS011;8993;51.822;-2.268;2022-10-22T02:14:33;16.68;;;1.29;;
17741;SDS011;8993;51.822;-2.268;2022-10-22T02:19:38;17.70;;;1.43;;
17741;SDS011;8993;51.822;-2.268;2022-10-22T02:24:42;21.97;;;1.61;;
17741;SDS011;8993;51.822;-2.268;2022-10-22T02:29:48;23.85;;;1.68;;
17741;SDS011;8993;51.822;-2.268;2022-10-22T02:34:50;16.74;;;1.57;;
17741;SDS011;8993;51.822;-2.268;2022-10-22T02:39:54;15.63;;;1.59;;
17741;SDS011;8993;51.822;-2.268;2022-10-22T02:44:59;22.01;;;1.47;;
17741;SDS011;8993;51.822;-2.268;2022-10-22T02:50:03;20.97;;;1.68;;
17741;SDS011;8993;51.822;-2.268;2022-10-22T02:55:08;21.31;;;1.61;;
17741;SDS011;8993;51.822;-2.268;2022-10-22T03:00:12;18.01;;;1.30;;
17741;SDS011;8993;51.822;-2.268;2022-10-22T03:05:16;21.57;;;1.60;;
17741;SDS011;8993;51.822;-2.268;2022-10-22T03:10:20;19.51;;;1.53;;
17741;SDS011;8993;51.822;-2.268;2022-10-22T03:15:24;21.55;;;1.45;;
17741;SDS011;8993;51.822;-2.268;2022-10-22T03:20:29;20.66;;;1.46;;
17741;SDS011;8993;51.822;-2.268;2022-10-22T03:25:33;14.68;;;1.17;;
17741;SDS011;8993;51.822;-2.268;2022-10-22T03:30:37;17.72;;;1.32;;
17741;SDS011;8993;51.822;-2.268;2022-10-22T03:35:43;16.47;;;1.32;;
17741;SDS011;8993;51.822;-2.268;2022-10-22T03:40:47;16.86;;;1.33;;
17741;SDS011;8993;51.822;-2.268;2022-10-22T03:45:51;18.06;;;1.29;;
17741;SDS011;8993;51.822;-2.268;2022-10-22T03:50:55;19.45;;;1.53;;
17741;SDS011;8993;51.822;-2.268;2022-10-22T03:56:00;13.26;;;1.26;;
17741;SDS011;8993;51.822;-2.268;2022-10-22T04:01:04;17.61;;;1.25;;
17741;SDS011;8993;51.822;-2.268;2022-10-22T04:06:09;19.86;;;1.39;;
17741;SDS011;8993;51.822;-2.268;2022-10-22T04:11:13;16.98;;;1.54;;
17741;SDS011;8993;51.822;-2.268;2022-10-22T04:16:18;19.50;;;1.38;;
17741;SDS011;8993;51.822;-2.268;2022-10-22T04:21:21;18.61;;;1.37;;
17741;SDS011;8993;51.822;-2.268;2022-10-22T04:26:26;15.39;;;1.32;;
17741;SDS011;8993;51.822;-2.268;2022-10-22T04:31:29;17.80;;;1.34;;
17741;SDS011;8993;51.822;-2.268;2022-10-22T04:36:34;18.88;;;1.49;;
17741;SDS011;8993;51.822;-2.268;2022-10-22T04:41:38;20.71;;;1.68;;
17741;SDS011;8993;51.822;-2.268;2022-10-22T04:46:42;19.83;;;1.66;;
17741;SDS011;8993;51.822;-2.268;2022-10-22T04:51:46;21.87;;;1.52;;
17741;SDS011;8993;51.822;-2.268;2022-10-22T04:56:51;21.35;;;1.58;;
17741;SDS011;8993;51.822;-2.268;2022-10-22T05:01:56;21.70;;;1.79;;
17741;SDS011;8993;51.822;-2.268;2022-10-22T05:07:00;25.32;;;2.08;;
17741;SDS011;8993;51.822;-2.268;2022-10-22T05:12:04;25.54;;;1.80;;
17741;SDS011;8993;51.822;-2.268;2022-10-22T05:17:08;20.87;;;1.56;;
17741;SDS011;8993;51.822;-2.268;2022-10-22T05:22:13;24.84;;;1.77;;
17741;SDS011;8993;51.822;-2.268;2022-10-22T05:27:16;20.65;;;1.62;;
17741;SDS011;8993;51.822;-2.268;2022-10-22T05:32:21;20.50;;;1.55;;
17741;SDS011;8993;51.822;-2.268;2022-10-22T05:37:26;22.78;;;1.65;;
17741;SDS011;8993;51.822;-2.268;2022-10-22T05:42:30;23.33;;;1.72;;
17741;SDS011;8993;51.822;-2.268;2022-10-22T05:47:34;20.99;;;1.35;;
17741;SDS011;8993;51.822;-2.268;2022-10-22T05:52:39;23.32;;;1.57;;
17741;SDS011;8993;51.822;-2.268;2022-10-22T05:57:43;20.80;;;1.63;;
17741;SDS011;8993;51.822;-2.268;2022-10-22T06:02:48;24.01;;;1.52;;
17741;SDS011;8993;51.822;-2.268;2022-10-22T06:07:51;27.23;;;1.65;;
17741;SDS011;8993;51.822;-2.268;2022-10-22T06:12:56;25.55;;;1.75;;
17741;SDS011;8993;51.822;-2.268;2022-10-22T06:18:00;25.91;;;1.84;;
17741;SDS011;8993;51.822;-2.268;2022-10-22T06:23:05;29.44;;;1.87;;
17741;SDS011;8993;51.822;-2.268;2022-10-22T06:28:09;28.32;;;2.00;;
17741;SDS011;8993;51.822;-2.268;2022-10-22T06:33:13;21.32;;;1.96;;
17741;SDS011;8993;51.822;-2.268;2022-10-22T06:38:21;25.75;;;1.91;;
17741;SDS011;8993;51.822;-2.268;2022-10-22T06:43:25;25.16;;;1.94;;
17741;SDS011;8993;51.822;-2.268;2022-10-22T06:48:30;24.98;;;1.82;;
17741;SDS011;8993;51.822;-2.268;2022-10-22T06:53:34;28.11;;;1.98;;
17741;SDS011;8993;51.822;-2.268;2022-10-22T06:58:38;26.42;;;1.64;;
17741;SDS011;8993;51.822;-2.268;2022-10-22T07:03:42;25.11;;;2.05;;
17741;SDS011;8993;51.822;-2.268;2022-10-22T07:08:47;25.23;;;1.89;;
17741;SDS011;8993;51.822;-2.268;2022-10-22T07:13:52;27.23;;;2.16;;
17741;SDS011;8993;51.822;-2.268;2022-10-22T07:18:55;21.99;;;1.80;;
17741;SDS011;8993;51.822;-2.268;2022-10-22T07:23:59;26.50;;;2.01;;
17741;SDS011;8993;51.822;-2.268;2022-10-22T07:29:03;23.98;;;1.77;;
17741;SDS011;8993;51.822;-2.268;2022-10-22T07:34:08;25.02;;;1.75;;
17741;SDS011;8993;51.822;-2.268;2022-10-22T07:39:11;23.55;;;1.79;;
17741;SDS011;8993;51.822;-2.268;2022-10-22T07:44:15;23.60;;;1.64;;
17741;SDS011;8993;51.822;-2.268;2022-10-22T07:49:20;23.07;;;1.63;;
17741;SDS011;8993;51.822;-2.268;2022-10-22T07:54:24;26.88;;;1.90;;
17741;SDS011;8993;51.822;-2.268;2022-10-22T07:59:28;23.40;;;1.96;;
17741;SDS011;8993;51.822;-2.268;2022-10-22T08:04:32;16.57;;;1.35;;
17741;SDS011;8993;51.822;-2.268;2022-10-22T08:09:37;23.56;;;1.59;;
17741;SDS011;8993;51.822;-2.268;2022-10-22T08:14:41;25.54;;;1.90;;
17741;SDS011;8993;51.822;-2.268;2022-10-22T08:19:45;24.63;;;1.72;;
17741;SDS011;8993;51.822;-2.268;2022-10-22T08:24:50;24.78;;;1.90;;
17741;SDS011;8993;51.822;-2.268;2022-10-22T08:29:54;24.21;;;1.59;;
17741;SDS011;8993;51.822;-2.268;2022-10-22T08:34:58;22.93;;;1.62;;
17741;SDS011;8993;51.822;-2.268;2022-10-22T08:40:03;18.74;;;1.70;;
17741;SDS011;8993;51.822;-2.268;2022-10-22T08:45:09;18.53;;;1.55;;
17741;SDS011;8993;51.822;-2.268;2022-10-22T08:50:11;17.85;;;1.48;;
17741;SDS011;8993;51.822;-2.268;2022-10-22T08:55:15;19.92;;;1.48;;
17741;SDS011;8993;51.822;-2.268;2022-10-22T09:00:20;20.79;;;1.84;;
17741;SDS011;8993;51.822;-2.268;2022-10-22T09:05:28;18.30;;;1.54;;
17741;SDS011;8993;51.822;-2.268;2022-10-22T09:10:30;15.69;;;1.35;;
17741;SDS011;8993;51.822;-2.268;2022-10-22T09:15:32;17.22;;;1.47;;
17741;SDS011;8993;51.822;-2.268;2022-10-22T09:20:38;24.83;;;1.73;;
17741;SDS011;8993;51.822;-2.268;2022-10-22T09:25:41;16.70;;;1.43;;
17741;SDS011;8993;51.822;-2.268;2022-10-22T09:30:45;14.64;;;1.43;;
17741;SDS011;8993;51.822;-2.268;2022-10-22T09:35:51;18.70;;;1.50;;
17741;SDS011;8993;51.822;-2.268;2022-10-22T09:40:55;18.29;;;1.65;;
17741;SDS011;8993;51.822;-2.268;2022-10-22T09:46:00;15.85;;;1.39;;
17741;SDS011;8993;51.822;-2.268;2022-10-22T09:51:04;22.22;;;1.72;;
17741;SDS011;8993;51.822;-2.268;2022-10-22T09:56:08;26.15;;;1.91;;
17741;SDS011;8993;51.822;-2.268;2022-10-22T10:01:16;24.41;;;1.70;;
17741;SDS011;8993;51.822;-2.268;2022-10-22T10:06:17;21.64;;;1.80;;
17741;SDS011;8993;51.822;-2.268;2022-10-22T10:11:24;16.97;;;1.50;;
17741;SDS011;8993;51.822;-2.268;2022-10-22T10:16:31;19.18;;;1.70;;
17741;SDS011;8993;51.822;-2.268;2022-10-22T10:21:32;20.54;;;2.07;;
17741;SDS011;8993;51.822;-2.268;2022-10-22T10:26:40;21.89;;;1.93;;
17741;SDS011;8993;51.822;-2.268;2022-10-22T10:31:46;22.20;;;2.10;;
17741;SDS011;8993;51.822;-2.268;2022-10-22T10:36:51;20.49;;;2.06;;
17741;SDS011;8993;51.822;-2.268;2022-10-22T10:41:53;21.22;;;2.01;;
17741;SDS011;8993;51.822;-2.268;2022-10-22T10:46:58;20.71;;;1.84;;
17741;SDS011;8993;51.822;-2.268;2022-10-22T10:52:02;21.53;;;1.97;;
17741;SDS011;8993;51.822;-2.268;2022-10-22T10:57:07;22.10;;;1.76;;
17741;SDS011;8993;51.822;-2.268;2022-10-22T11:02:14;22.02;;;1.82;;
17741;SDS011;8993;51.822;-2.268;2022-10-22T11:07:14;19.63;;;1.58;;
17741;SDS011;8993;51.822;-2.268;2022-10-22T11:12:19;18.07;;;1.61;;
17741;SDS011;8993;51.822;-2.268;2022-10-22T11:17:23;15.26;;;1.58;;
17741;SDS011;8993;51.822;-2.268;2022-10-22T11:22:28;19.77;;;1.61;;
17741;SDS011;8993;51.822;-2.268;2022-10-22T11:27:35;19.05;;;1.45;;
17741;SDS011;8993;51.822;-2.268;2022-10-22T11:32:37;20.08;;;1.59;;
17741;SDS011;8993;51.822;-2.268;2022-10-22T11:37:41;17.57;;;1.42;;
17741;SDS011;8993;51.822;-2.268;2022-10-22T11:42:47;18.11;;;1.64;;
17741;SDS011;8993;51.822;-2.268;2022-10-22T11:47:51;21.46;;;1.85;;
17741;SDS011;8993;51.822;-2.268;2022-10-22T11:52:58;15.35;;;1.57;;
17741;SDS011;8993;51.822;-2.268;2022-10-22T11:57:58;18.67;;;1.64;;
17741;SDS011;8993;51.822;-2.268;2022-10-22T12:03:02;16.16;;;1.55;;
17741;SDS011;8993;51.822;-2.268;2022-10-22T12:08:15;18.47;;;1.59;;
17741;SDS011;8993;51.822;-2.268;2022-10-22T12:13:21;16.82;;;1.45;;
17741;SDS011;8993;51.822;-2.268;2022-10-22T12:18:15;16.36;;;1.61;;
17741;SDS011;8993;51.822;-2.268;2022-10-22T12:23:20;12.59;;;1.27;;
17741;SDS011;8993;51.822;-2.268;2022-10-22T12:28:24;15.94;;;1.57;;
17741;SDS011;8993;51.822;-2.268;2022-10-22T12:33:28;22.74;;;1.61;;
17741;SDS011;8993;51.822;-2.268;2022-10-22T12:38:33;15.38;;;1.55;;
17741;SDS011;8993;51.822;-2.268;2022-10-22T12:43:37;17.41;;;1.58;;
17741;SDS011;8993;51.822;-2.268;2022-10-22T12:48:43;15.20;;;1.31;;
17741;SDS011;8993;51.822;-2.268;2022-10-22T12:53:46;15.66;;;1.45;;
17741;SDS011;8993;51.822;-2.268;2022-10-22T12:58:51;12.92;;;1.35;;
17741;SDS011;8993;51.822;-2.268;2022-10-22T13:04:03;18.01;;;1.64;;
17741;SDS011;8993;51.822;-2.268;2022-10-22T13:09:02;16.82;;;1.68;;
17741;SDS011;8993;51.822;-2.268;2022-10-22T13:14:03;12.80;;;1.39;;
17741;SDS011;8993;51.822;-2.268;2022-10-22T13:19:31;15.37;;;1.66;;
17741;SDS011;8993;51.822;-2.268;2022-10-22T13:24:18;14.84;;;1.57;;
17741;SDS011;8993;51.822;-2.268;2022-10-22T13:29:16;18.03;;;1.52;;
17741;SDS011;8993;51.822;-2.268;2022-10-22T13:34:21;16.85;;;1.64;;
17741;SDS011;8993;51.822;-2.268;2022-10-22T13:39:25;16.78;;;1.54;;
17741;SDS011;8993;51.822;-2.268;2022-10-22T13:44:30;17.35;;;1.63;;
17741;SDS011;8993;51.822;-2.268;2022-10-22T13:49:34;13.31;;;1.49;;
17741;SDS011;8993;51.822;-2.268;2022-10-22T13:54:41;9.85;;;1.00;;
17741;SDS011;8993;51.822;-2.268;2022-10-22T13:59:46;9.29;;;1.09;;
17741;SDS011;8993;51.822;-2.268;2022-10-22T14:04:50;11.61;;;1.04;;
17741;SDS011;8993;51.822;-2.268;2022-10-22T14:09:54;12.34;;;1.14;;
17741;SDS011;8993;51.822;-2.268;2022-10-22T14:15:00;13.89;;;1.31;;
17741;SDS011;8993;51.822;-2.268;2022-10-22T14:20:04;11.58;;;1.11;;
17741;SDS011;8993;51.822;-2.268;2022-10-22T14:25:09;9.74;;;0.92;;
17741;SDS011;8993;51.822;-2.268;2022-10-22T14:30:13;7.35;;;0.83;;
17741;SDS011;8993;51.822;-2.268;2022-10-22T14:35:18;8.14;;;0.81;;
17741;SDS011;8993;51.822;-2.268;2022-10-22T14:40:21;8.21;;;0.92;;
17741;SDS011;8993;51.822;-2.268;2022-10-22T14:45:26;12.20;;;0.99;;
17741;SDS011;8993;51.822;-2.268;2022-10-22T14:50:30;11.83;;;1.14;;
17741;SDS011;8993;51.822;-2.268;2022-10-22T14:55:34;11.94;;;1.32;;
17741;SDS011;8993;51.822;-2.268;2022-10-22T15:00:39;11.71;;;1.29;;
17741;SDS011;8993;51.822;-2.268;2022-10-22T15:05:43;13.54;;;1.52;;
17741;SDS011;8993;51.822;-2.268;2022-10-22T15:10:55;12.28;;;1.40;;
17741;SDS011;8993;51.822;-2.268;2022-10-22T15:15:51;12.68;;;1.35;;
17741;SDS011;8993;51.822;-2.268;2022-10-22T15:20:56;10.36;;;1.12;;
17741;SDS011;8993;51.822;-2.268;2022-10-22T15:25:59;10.50;;;1.25;;
17741;SDS011;8993;51.822;-2.268;2022-10-22T15:31:04;11.23;;;1.23;;
17741;SDS011;8993;51.822;-2.268;2022-10-22T15:36:08;12.77;;;1.44;;
17741;SDS011;8993;51.822;-2.268;2022-10-22T15:41:12;14.26;;;1.25;;
17741;SDS011;8993;51.822;-2.268;2022-10-22T15:46:17;11.13;;;1.24;;
17741;SDS011;8993;51.822;-2.268;2022-10-22T15:51:20;16.87;;;1.34;;
17741;SDS011;8993;51.822;-2.268;2022-10-22T15:56:25;15.26;;;1.41;;
17741;SDS011;8993;51.822;-2.268;2022-10-22T16:01:29;11.99;;;1.32;;
17741;SDS011;8993;51.822;-2.268;2022-10-22T16:06:34;12.08;;;1.10;;
17741;SDS011;8993;51.822;-2.268;2022-10-22T16:11:38;10.84;;;1.08;;
17741;SDS011;8993;51.822;-2.268;2022-10-22T16:16:46;17.65;;;1.39;;
17741;SDS011;8993;51.822;-2.268;2022-10-22T16:21:50;14.63;;;1.58;;
17741;SDS011;8993;51.822;-2.268;2022-10-22T16:26:53;16.24;;;1.69;;
17741;SDS011;8993;51.822;-2.268;2022-10-22T16:31:57;13.39;;;1.29;;
17741;SDS011;8993;51.822;-2.268;2022-10-22T16:37:02;17.68;;;1.51;;
17741;SDS011;8993;51.822;-2.268;2022-10-22T16:42:06;16.95;;;1.57;;
17741;SDS011;8993;51.822;-2.268;2022-10-22T16:47:10;14.54;;;1.37;;
17741;SDS011;8993;51.822;-2.268;2022-10-22T16:52:15;15.50;;;1.74;;
17741;SDS011;8993;51.822;-2.268;2022-10-22T16:57:19;17.67;;;1.80;;
17741;SDS011;8993;51.822;-2.268;2022-10-22T17:02:24;16.11;;;1.55;;
17741;SDS011;8993;51.822;-2.268;2022-10-22T17:07:28;18.37;;;1.77;;
17741;SDS011;8993;51.822;-2.268;2022-10-22T17:12:32;15.92;;;1.81;;
17741;SDS011;8993;51.822;-2.268;2022-10-22T17:17:37;15.76;;;1.63;;
17741;SDS011;8993;51.822;-2.268;2022-10-22T17:22:41;17.86;;;1.92;;
17741;SDS011;8993;51.822;-2.268;2022-10-22T17:27:45;18.90;;;2.00;;
17741;SDS011;8993;51.822;-2.268;2022-10-22T17:32:49;18.29;;;1.94;;
17741;SDS011;8993;51.822;-2.268;2022-10-22T17:37:53;21.66;;;2.11;;
17741;SDS011;8993;51.822;-2.268;2022-10-22T17:42:58;17.90;;;1.85;;
17741;SDS011;8993;51.822;-2.268;2022-10-22T17:48:03;18.38;;;1.97;;
17741;SDS011;8993;51.822;-2.268;2022-10-22T17:53:07;15.87;;;1.65;;
17741;SDS011;8993;51.822;-2.268;2022-10-22T17:58:11;18.43;;;2.18;;
17741;SDS011;8993;51.822;-2.268;2022-10-22T18:03:16;16.85;;;2.15;;
17741;SDS011;8993;51.822;-2.268;2022-10-22T18:08:21;22.13;;;2.66;;
17741;SDS011;8993;51.822;-2.268;2022-10-22T18:13:25;27.87;;;4.51;;
17741;SDS011;8993;51.822;-2.268;2022-10-22T18:18:30;26.74;;;3.66;;
17741;SDS011;8993;51.822;-2.268;2022-10-22T18:23:34;19.06;;;2.42;;
17741;SDS011;8993;51.822;-2.268;2022-10-22T18:28:38;16.67;;;2.31;;
17741;SDS011;8993;51.822;-2.268;2022-10-22T18:33:45;22.91;;;3.21;;
17741;SDS011;8993;51.822;-2.268;2022-10-22T18:38:49;22.38;;;3.59;;
17741;SDS011;8993;51.822;-2.268;2022-10-22T18:43:54;28.49;;;5.42;;
17741;SDS011;8993;51.822;-2.268;2022-10-22T18:48:57;26.34;;;4.45;;
17741;SDS011;8993;51.822;-2.268;2022-10-22T18:54:03;28.05;;;4.11;;
17741;SDS011;8993;51.822;-2.268;2022-10-22T18:59:10;23.68;;;2.60;;
17741;SDS011;8993;51.822;-2.268;2022-10-22T19:04:10;18.71;;;2.35;;
17741;SDS011;8993;51.822;-2.268;2022-10-22T19:09:14;19.02;;;2.23;;
17741;SDS011;8993;51.822;-2.268;2022-10-22T19:14:18;20.92;;;2.19;;
17741;SDS011;8993;51.822;-2.268;2022-10-22T19:19:22;17.54;;;2.24;;
17741;SDS011;8993;51.822;-2.268;2022-10-22T19:24:27;21.23;;;2.39;;
17741;SDS011;8993;51.822;-2.268;2022-10-22T19:29:31;15.84;;;2.07;;
17741;SDS011;8993;51.822;-2.268;2022-10-22T19:34:35;13.64;;;1.70;;
17741;SDS011;8993;51.822;-2.268;2022-10-22T19:39:40;14.55;;;1.56;;
17741;SDS011;8993;51.822;-2.268;2022-10-22T19:44:44;8.58;;;1.14;;
17741;SDS011;8993;51.822;-2.268;2022-10-22T19:49:48;8.73;;;1.04;;
17741;SDS011;8993;51.822;-2.268;2022-10-22T19:54:52;8.18;;;1.06;;
17741;SDS011;8993;51.822;-2.268;2022-10-22T19:59:56;15.25;;;1.73;;
17741;SDS011;8993;51.822;-2.268;2022-10-22T20:05:01;13.25;;;1.68;;
17741;SDS011;8993;51.822;-2.268;2022-10-22T20:10:05;13.49;;;1.70;;
17741;SDS011;8993;51.822;-2.268;2022-10-22T20:15:11;14.46;;;1.79;;
17741;SDS011;8993;51.822;-2.268;2022-10-22T20:20:15;15.34;;;2.26;;
17741;SDS011;8993;51.822;-2.268;2022-10-22T20:25:19;14.97;;;2.00;;
17741;SDS011;8993;51.822;-2.268;2022-10-22T20:30:23;18.28;;;2.39;;
17741;SDS011;8993;51.822;-2.268;2022-10-22T20:35:28;15.15;;;2.11;;
17741;SDS011;8993;51.822;-2.268;2022-10-22T20:40:32;15.76;;;2.14;;
17741;SDS011;8993;51.822;-2.268;2022-10-22T20:45:37;15.79;;;2.01;;
17741;SDS011;8993;51.822;-2.268;2022-10-22T20:50:41;18.21;;;2.22;;
17741;SDS011;8993;51.822;-2.268;2022-10-22T20:55:45;22.56;;;2.64;;
17741;SDS011;8993;51.822;-2.268;2022-10-22T21:00:49;20.60;;;3.13;;
17741;SDS011;8993;51.822;-2.268;2022-10-22T21:05:54;19.23;;;2.51;;
17741;SDS011;8993;51.822;-2.268;2022-10-22T21:10:58;18.59;;;2.88;;
17741;SDS011;8993;51.822;-2.268;2022-10-22T21:16:06;21.35;;;2.67;;
17741;SDS011;8993;51.822;-2.268;2022-10-22T21:21:07;19.49;;;2.69;;
17741;SDS011;8993;51.822;-2.268;2022-10-22T21:26:11;17.31;;;2.75;;
17741;SDS011;8993;51.822;-2.268;2022-10-22T21:31:15;21.69;;;2.96;;
17741;SDS011;8993;51.822;-2.268;2022-10-22T21:36:19;22.59;;;2.87;;
17741;SDS011;8993;51.822;-2.268;2022-10-22T21:41:23;21.22;;;2.92;;
17741;SDS011;8993;51.822;-2.268;2022-10-22T21:46:28;23.40;;;3.17;;
17741;SDS011;8993;51.822;-2.268;2022-10-22T21:51:32;18.19;;;2.68;;
17741;SDS011;8993;51.822;-2.268;2022-10-22T21:56:38;18.55;;;2.56;;
17741;SDS011;8993;51.822;-2.268;2022-10-22T22:01:42;21.34;;;2.87;;
17741;SDS011;8993;51.822;-2.268;2022-10-22T22:06:46;19.49;;;3.39;;
17741;SDS011;8993;51.822;-2.268;2022-10-22T22:11:51;19.79;;;3.66;;
17741;SDS011;8993;51.822;-2.268;2022-10-22T22:16:55;18.83;;;3.36;;
17741;SDS011;8993;51.822;-2.268;2022-10-22T22:22:00;18.04;;;3.15;;
17741;SDS011;8993;51.822;-2.268;2022-10-22T22:27:04;19.99;;;3.73;;
17741;SDS011;8993;51.822;-2.268;2022-10-22T22:32:08;22.80;;;3.93;;
17741;SDS011;8993;51.822;-2.268;2022-10-22T22:37:13;25.67;;;4.29;;
17741;SDS011;8993;51.822;-2.268;2022-10-22T22:42:18;21.82;;;3.95;;
17741;SDS011;8993;51.822;-2.268;2022-10-22T22:47:22;22.77;;;4.20;;
17741;SDS011;8993;51.822;-2.268;2022-10-22T22:52:28;25.98;;;4.27;;
17741;SDS011;8993;51.822;-2.268;2022-10-22T22:57:33;24.18;;;3.88;;
17741;SDS011;8993;51.822;-2.268;2022-10-22T23:02:37;21.16;;;3.42;;
17741;SDS011;8993;51.822;-2.268;2022-10-22T23:07:42;17.49;;;2.97;;
17741;SDS011;8993;51.822;-2.268;2022-10-22T23:12:47;21.49;;;3.34;;
17741;SDS011;8993;51.822;-2.268;2022-10-22T23:17:51;23.96;;;4.23;;
17741;SDS011;8993;51.822;-2.268;2022-10-22T23:22:56;24.41;;;4.49;;
17741;SDS011;8993;51.822;-2.268;2022-10-22T23:28:00;27.69;;;5.55;;
17741;SDS011;8993;51.822;-2.268;2022-10-22T23:33:07;21.61;;;4.98;;
17741;SDS011;8993;51.822;-2.268;2022-10-22T23:38:11;26.12;;;5.03;;
17741;SDS011;8993;51.822;-2.268;2022-10-22T23:43:16;21.41;;;4.08;;
17741;SDS011;8993;51.822;-2.268;2022-10-22T23:48:20;25.27;;;4.72;;
17741;SDS011;8993;51.822;-2.268;2022-10-22T23:53:25;19.79;;;4.23;;
17741;SDS011;8993;51.822;-2.268;2022-10-22T23:58:29;23.62;;;4.32;;
